CYDP

Nain Airport

Nain, Canada
METAR CYDP 191200Z 31010KT 15SM OVC036 03/M04 A3028 RMK SC8 SLP257
Observed Flight Rules
Sep-19 @ 12:00 UTC (55 minutes ago) Visual Flight Rules
Wind Visibility Clouds
310° at 10 knots 15 miles
  • Overcast at 3,600' AGL
Temperatures Readings
Current 3°C / 37°F
Dewpoint -4°C / 25°F
Humidity 60%
Altimeter 30.28" Hg
Pressure 1025.7 hPa
Elevation 7
METAR CYDP 191200Z 31010KT 15SM OVC036 03/M04 A3028 RMK SC8 SLP257
Observed Flight Rules
Sep-19 @ 12:00 UTC
(55 minutes ago)
VFR
Wind Visibility
310° at 10 knots 15 miles
Clouds
  • Overcast at 3,600' AGL
Temperature Dewpoint
3°C / 37°F -4°C / 25°F
Humidity Altimeter Pressure
60% 30.28" Hg 1025.7 hPa